Time,TemperatureF,DewpointF,PressureIn,WindDirection,WindDirectionDegrees,WindSpeedMPH,WindSpeedGustMPH,Humidity,HourlyPrecipIn,Conditions,Clouds,dailyrainin,SoftwareType,DateUTC
2013-07-18 00:02:00,65.0,60.0,30.30,ESE,102,4.0,10.0,84,0.00,,,-99.99,,2013-07-18 05:02:00,
2013-07-18 00:11:00,65.0,60.0,30.30,ESE,102,4.0,10.0,84,0.00,,,-99.99,,2013-07-18 05:11:00,
2013-07-18 00:21:00,65.0,60.0,30.30,East,97,5.0,10.0,83,0.00,,,-99.99,,2013-07-18 05:21:00,
2013-07-18 00:32:00,65.0,60.0,30.30,East,97,5.0,10.0,83,0.00,,,-99.99,,2013-07-18 05:32:00,
2013-07-18 00:42:00,65.0,60.0,30.30,East,97,5.0,10.0,83,0.00,,,-99.99,,2013-07-18 05:42:00,
2013-07-18 00:52:00,65.0,60.0,30.29,ESE,104,5.0,10.0,84,0.00,,,-99.99,,2013-07-18 05:52:00,
2013-07-18 01:01:00,65.0,60.0,30.29,ESE,104,5.0,10.0,84,0.00,,,-99.99,,2013-07-18 06:01:00,
2013-07-18 01:12:00,65.0,60.0,30.29,ESE,104,5.0,10.0,84,0.00,,,-99.99,,2013-07-18 06:12:00,
2013-07-18 01:22:00,65.0,60.0,30.29,ESE,123,4.0,9.0,84,0.00,,,-99.99,,2013-07-18 06:22:00,
2013-07-18 01:32:00,65.0,60.0,30.29,ESE,123,4.0,9.0,84,0.00,,,-99.99,,2013-07-18 06:32:00,
2013-07-18 01:43:00,65.0,60.0,30.29,ESE,123,4.0,9.0,84,0.00,,,-99.99,,2013-07-18 06:43:00,
2013-07-18 01:52:00,65.0,60.0,30.28,ESE,107,3.0,9.0,85,0.00,,,-99.99,,2013-07-18 06:52:00,
2013-07-18 02:01:00,65.0,60.0,30.28,ESE,107,3.0,9.0,85,0.00,,,-99.99,,2013-07-18 07:01:00,
2013-07-18 02:11:00,65.0,60.0,30.28,ESE,107,3.0,9.0,85,0.00,,,-99.99,,2013-07-18 07:11:00,
2013-07-18 02:22:00,64.0,60.0,30.28,SE,126,1.0,6.0,87,0.00,,,-99.99,,2013-07-18 07:22:00,
2013-07-18 02:32:00,64.0,60.0,30.28,SE,126,1.0,6.0,87,0.00,,,-99.99,,2013-07-18 07:32:00,
2013-07-18 02:42:00,64.0,60.0,30.28,SE,126,1.0,6.0,87,0.00,,,-99.99,,2013-07-18 07:42:00,
2013-07-18 02:52:00,64.0,60.0,30.28,East,88,5.0,7.0,87,0.00,,,-99.99,,2013-07-18 07:52:00,
2013-07-18 03:01:00,64.0,60.0,30.28,East,88,5.0,7.0,87,0.00,,,-99.99,,2013-07-18 08:01:00,
2013-07-18 03:11:00,64.0,60.0,30.28,East,88,5.0,7.0,87,0.00,,,-99.99,,2013-07-18 08:11:00,
2013-07-18 03:21:00,64.0,61.0,30.27,SE,126,8.0,14.0,89,0.00,,,-99.99,,2013-07-18 08:21:00,
2013-07-18 03:32:00,64.0,61.0,30.27,SE,126,8.0,14.0,89,0.00,,,-99.99,,2013-07-18 08:32:00,
2013-07-18 03:42:00,64.0,61.0,30.27,SE,126,8.0,14.0,89,0.00,,,-99.99,,2013-07-18 08:42:00,
2013-07-18 03:52:00,63.0,60.0,30.26,SE,128,3.0,9.0,91,0.00,,,-99.99,,2013-07-18 08:52:00,
2013-07-18 04:01:00,63.0,60.0,30.26,SE,128,3.0,9.0,91,0.00,,,-99.99,,2013-07-18 09:01:00,
2013-07-18 04:11:00,63.0,60.0,30.26,SE,128,3.0,9.0,91,0.00,,,-99.99,,2013-07-18 09:11:00,
2013-07-18 04:21:00,63.0,60.0,30.25,SSW,202,1.0,5.0,91,0.00,,,-99.99,,2013-07-18 09:21:00,
2013-07-18 04:31:00,63.0,60.0,30.25,SSW,202,1.0,5.0,91,0.00,,,-99.99,,2013-07-18 09:31:00,
2013-07-18 04:42:00,63.0,60.0,30.25,SSW,202,1.0,5.0,91,0.00,,,-99.99,,2013-07-18 09:42:00,
2013-07-18 04:51:00,63.0,60.0,30.26,ENE,76,0.0,5.0,90,0.00,,,-99.99,,2013-07-18 09:51:00,
2013-07-18 05:01:00,63.0,60.0,30.26,ENE,76,0.0,5.0,90,0.00,,,-99.99,,2013-07-18 10:01:00,
2013-07-18 05:11:00,63.0,60.0,30.26,ENE,76,0.0,5.0,90,0.00,,,-99.99,,2013-07-18 10:11:00,
2013-07-18 05:21:00,63.0,60.0,30.26,ENE,71,2.0,5.0,90,0.00,,,-99.99,,2013-07-18 10:21:00,
2013-07-18 05:32:00,63.0,60.0,30.26,ENE,71,2.0,5.0,90,0.00,,,-99.99,,2013-07-18 10:32:00,
2013-07-18 05:43:00,63.0,60.0,30.26,ENE,71,2.0,5.0,90,0.00,,,-99.99,,2013-07-18 10:43:00,
2013-07-18 05:52:00,63.0,60.0,30.24,East,88,0.0,3.0,90,0.00,,,-99.99,,2013-07-18 10:52:00,
2013-07-18 06:01:00,63.0,60.0,30.24,East,88,0.0,3.0,90,0.00,,,-99.99,,2013-07-18 11:01:00,
2013-07-18 06:11:00,63.0,60.0,30.24,East,88,0.0,3.0,90,0.00,,,-99.99,,2013-07-18 11:11:00,
2013-07-18 06:22:00,64.0,61.0,30.24,ESE,121,1.0,5.0,90,0.00,,,-99.99,,2013-07-18 11:22:00,
2013-07-18 06:32:00,64.0,61.0,30.24,ESE,121,1.0,5.0,90,0.00,,,-99.99,,2013-07-18 11:32:00,
2013-07-18 06:43:00,64.0,61.0,30.24,ESE,121,1.0,5.0,90,0.00,,,-99.99,,2013-07-18 11:43:00,
2013-07-18 06:52:00,63.0,60.0,30.24,ESE,107,3.0,6.0,91,0.00,,,-99.99,,2013-07-18 11:52:00,
2013-07-18 07:01:00,63.0,60.0,30.24,ESE,107,3.0,6.0,91,0.00,,,-99.99,,2013-07-18 12:01:00,
2013-07-18 07:11:00,63.0,60.0,30.24,ESE,107,3.0,6.0,91,0.00,,,-99.99,,2013-07-18 12:11:00,
2013-07-18 07:22:00,63.0,60.0,30.25,East,90,1.0,7.0,90,0.00,,,-99.99,,2013-07-18 12:22:00,
2013-07-18 07:32:00,63.0,60.0,30.25,East,90,1.0,7.0,90,0.00,,,-99.99,,2013-07-18 12:32:00,
2013-07-18 07:42:00,63.0,60.0,30.25,East,90,1.0,7.0,90,0.00,,,-99.99,,2013-07-18 12:42:00,
2013-07-18 07:52:00,64.0,61.0,30.25,East,90,2.0,4.0,90,0.00,,,-99.99,,2013-07-18 12:52:00,
2013-07-18 08:01:00,64.0,61.0,30.25,East,90,2.0,4.0,90,0.00,,,-99.99,,2013-07-18 13:01:00,
2013-07-18 08:11:00,64.0,61.0,30.25,East,90,2.0,4.0,90,0.00,,,-99.99,,2013-07-18 13:11:00,
2013-07-18 08:22:00,63.0,61.0,30.26,ESE,117,1.0,4.0,92,0.01,,,-99.99,,2013-07-18 13:22:00,
2013-07-18 08:32:00,63.0,61.0,30.26,ESE,117,1.0,4.0,92,0.01,,,-99.99,,2013-07-18 13:32:00,
2013-07-18 08:43:00,63.0,61.0,30.26,ESE,117,1.0,4.0,92,0.01,,,-99.99,,2013-07-18 13:43:00,
2013-07-18 08:53:00,63.0,61.0,30.26,East,95,3.0,7.0,92,0.02,,,-99.99,,2013-07-18 13:53:00,
2013-07-18 09:02:00,63.0,61.0,30.26,East,95,3.0,7.0,92,0.02,,,-99.99,,2013-07-18 14:02:00,
2013-07-18 09:11:00,63.0,61.0,30.26,East,95,3.0,7.0,92,0.02,,,-99.99,,2013-07-18 14:11:00,
2013-07-18 09:22:00,64.0,62.0,30.26,SE,124,2.0,6.0,93,0.01,,,-99.99,,2013-07-18 14:22:00,
2013-07-18 09:32:00,64.0,62.0,30.26,SE,124,2.0,6.0,93,0.01,,,-99.99,,2013-07-18 14:32:00,
2013-07-18 09:43:00,64.0,62.0,30.26,SE,124,2.0,6.0,93,0.01,,,-99.99,,2013-07-18 14:43:00,
2013-07-18 09:53:00,64.0,62.0,30.27,East,96,4.0,7.0,92,0.03,,,-99.99,,2013-07-18 14:53:00,
2013-07-18 10:01:00,64.0,62.0,30.27,East,96,4.0,7.0,92,0.03,,,-99.99,,2013-07-18 15:01:00,
2013-07-18 10:11:00,64.0,62.0,30.27,East,96,4.0,7.0,92,0.03,,,-99.99,,2013-07-18 15:11:00,
2013-07-18 10:22:00,65.0,63.0,30.27,ESE,111,3.0,5.0,92,0.03,,,-99.99,,2013-07-18 15:22:00,
2013-07-18 10:32:00,65.0,63.0,30.27,ESE,111,3.0,5.0,92,0.03,,,-99.99,,2013-07-18 15:32:00,
2013-07-18 10:43:00,65.0,63.0,30.27,ESE,111,3.0,5.0,92,0.03,,,-99.99,,2013-07-18 15:43:00,
2013-07-18 10:53:00,65.0,62.0,30.27,ESE,122,3.0,6.0,91,0.00,,,-99.99,,2013-07-18 15:53:00,
2013-07-18 11:01:00,65.0,62.0,30.27,ESE,122,3.0,6.0,91,0.00,,,-99.99,,2013-07-18 16:01:00,
2013-07-18 11:11:00,65.0,62.0,30.27,ESE,122,3.0,6.0,91,0.00,,,-99.99,,2013-07-18 16:11:00,
2013-07-18 11:22:00,65.0,63.0,30.27,East,98,3.0,7.0,92,0.00,,,-99.99,,2013-07-18 16:22:00,
2013-07-18 11:32:00,65.0,63.0,30.27,East,98,3.0,7.0,92,0.00,,,-99.99,,2013-07-18 16:32:00,
2013-07-18 11:42:00,65.0,63.0,30.27,East,98,3.0,7.0,92,0.00,,,-99.99,,2013-07-18 16:42:00,
2013-07-18 11:52:00,68.0,63.0,30.27,East,94,5.0,8.0,85,0.00,,,-99.99,,2013-07-18 16:52:00,
2013-07-18 12:02:00,68.0,63.0,30.27,East,94,5.0,8.0,85,0.00,,,-99.99,,2013-07-18 17:02:00,
2013-07-18 12:11:00,68.0,63.0,30.27,East,94,5.0,8.0,85,0.00,,,-99.99,,2013-07-18 17:11:00,
2013-07-18 12:22:00,67.0,61.0,30.27,East,87,5.0,8.0,82,0.00,,,-99.99,,2013-07-18 17:22:00,
2013-07-18 12:33:00,67.0,61.0,30.27,East,87,5.0,8.0,82,0.00,,,-99.99,,2013-07-18 17:33:00,
2013-07-18 12:43:00,67.0,61.0,30.27,East,87,5.0,8.0,82,0.00,,,-99.99,,2013-07-18 17:43:00,
2013-07-18 12:52:00,67.0,62.0,30.27,ESE,111,5.0,10.0,83,0.00,,,-99.99,,2013-07-18 17:52:00,
2013-07-18 13:01:00,67.0,62.0,30.27,ESE,111,5.0,10.0,83,0.00,,,-99.99,,2013-07-18 18:01:00,
2013-07-18 13:11:00,67.0,62.0,30.27,ESE,111,5.0,10.0,83,0.00,,,-99.99,,2013-07-18 18:11:00,
2013-07-18 13:22:00,67.0,61.0,30.27,ESE,117,4.0,9.0,82,0.00,,,-99.99,,2013-07-18 18:22:00,
2013-07-18 13:32:00,67.0,61.0,30.27,ESE,117,4.0,9.0,82,0.00,,,-99.99,,2013-07-18 18:32:00,
2013-07-18 13:43:00,67.0,61.0,30.27,ESE,117,4.0,9.0,82,0.00,,,-99.99,,2013-07-18 18:43:00,
2013-07-18 13:52:00,66.0,61.0,30.26,East,79,4.0,7.0,83,0.00,,,-99.99,,2013-07-18 18:52:00,
2013-07-18 14:01:00,66.0,61.0,30.26,East,79,4.0,7.0,83,0.00,,,-99.99,,2013-07-18 19:01:00,
2013-07-18 14:11:00,66.0,61.0,30.26,East,79,4.0,7.0,83,0.00,,,-99.99,,2013-07-18 19:11:00,
2013-07-18 14:22:00,68.0,61.0,30.25,ESE,118,1.0,9.0,79,0.00,,,-99.99,,2013-07-18 19:22:00,
2013-07-18 14:32:00,68.0,61.0,30.25,ESE,118,1.0,9.0,79,0.00,,,-99.99,,2013-07-18 19:32:00,
2013-07-18 14:43:00,68.0,61.0,30.25,ESE,118,1.0,9.0,79,0.00,,,-99.99,,2013-07-18 19:43:00,
2013-07-18 14:53:00,70.0,61.0,30.24,SE,136,4.0,10.0,74,0.00,,,-99.99,,2013-07-18 19:53:00,
2013-07-18 15:01:00,70.0,61.0,30.24,SE,136,4.0,10.0,74,0.00,,,-99.99,,2013-07-18 20:01:00,
2013-07-18 15:11:00,70.0,61.0,30.24,SE,136,4.0,10.0,74,0.00,,,-99.99,,2013-07-18 20:11:00,
2013-07-18 15:22:00,71.0,62.0,30.24,SE,144,2.0,10.0,72,0.00,,,-99.99,,2013-07-18 20:22:00,
2013-07-18 15:32:00,71.0,62.0,30.24,SE,144,2.0,10.0,72,0.00,,,-99.99,,2013-07-18 20:32:00,
2013-07-18 15:43:00,71.0,62.0,30.24,SE,144,2.0,10.0,72,0.00,,,-99.99,,2013-07-18 20:43:00,
2013-07-18 15:52:00,70.0,61.0,30.23,ESE,119,4.0,14.0,73,0.00,,,0.05,,2013-07-18 20:52:00,
2013-07-18 16:01:00,70.0,61.0,30.23,ESE,119,4.0,14.0,73,0.00,,,0.05,,2013-07-18 21:01:00,
2013-07-18 16:11:00,70.0,61.0,30.23,ESE,119,4.0,14.0,73,0.00,,,0.05,,2013-07-18 21:11:00,
2013-07-18 16:22:00,73.0,61.0,30.22,ESE,123,6.0,11.0,67,0.00,,,0.05,,2013-07-18 21:22:00,
2013-07-18 16:32:00,73.0,61.0,30.22,ESE,123,6.0,11.0,67,0.00,,,0.05,,2013-07-18 21:32:00,
2013-07-18 16:43:00,73.0,61.0,30.22,ESE,123,6.0,11.0,67,0.00,,,0.05,,2013-07-18 21:43:00,
2013-07-18 16:52:00,71.0,61.0,30.21,East,91,5.0,10.0,71,0.00,,,0.05,,2013-07-18 21:52:00,
2013-07-18 17:00:00,70.0,61.0,30.21,East,96,3.0,6.0,72,0.00,,,0.05,,2013-07-18 22:00:00,
2013-07-18 17:01:00,71.0,61.0,30.21,East,91,5.0,10.0,71,0.00,,,0.05,,2013-07-18 22:01:00,
2013-07-18 17:11:00,71.0,61.0,30.21,East,91,5.0,10.0,71,0.00,,,0.05,,2013-07-18 22:11:00,
2013-07-18 17:22:00,70.0,61.0,30.21,East,96,3.0,6.0,72,0.00,,,0.05,,2013-07-18 22:22:00,
2013-07-18 17:32:00,70.0,61.0,30.21,East,96,3.0,6.0,72,0.00,,,0.05,,2013-07-18 22:32:00,
2013-07-18 17:43:00,70.0,61.0,30.21,East,96,3.0,6.0,72,0.00,,,0.05,,2013-07-18 22:43:00,
2013-07-18 17:53:00,70.0,61.0,30.21,East,96,3.0,6.0,72,0.00,,,0.05,,2013-07-18 22:53:00,
2013-07-18 18:22:00,70.0,62.0,30.20,ESE,102,6.0,9.0,75,0.00,,,0.05,,2013-07-18 23:22:00,
2013-07-18 18:32:00,70.0,62.0,30.20,ESE,102,6.0,9.0,75,0.00,,,0.05,,2013-07-18 23:32:00,
2013-07-18 18:42:00,70.0,62.0,30.20,ESE,102,6.0,9.0,75,0.00,,,0.05,,2013-07-18 23:42:00,
2013-07-18 18:52:00,69.0,61.0,30.19,ESE,102,6.0,9.0,77,0.01,,,0.06,,2013-07-18 23:52:00,
2013-07-18 19:01:00,69.0,61.0,30.19,ESE,102,6.0,9.0,77,0.01,,,0.06,,2013-07-19 00:01:00,
2013-07-18 19:11:00,69.0,61.0,30.19,ESE,102,6.0,9.0,77,0.01,,,0.06,,2013-07-19 00:11:00,
2013-07-18 19:22:00,69.0,61.0,30.19,East,96,7.0,11.0,76,0.01,,,0.06,,2013-07-19 00:22:00,
2013-07-18 19:32:00,69.0,61.0,30.19,East,96,7.0,11.0,76,0.01,,,0.06,,2013-07-19 00:32:00,
2013-07-18 19:43:00,69.0,61.0,30.19,East,96,7.0,11.0,76,0.01,,,0.06,,2013-07-19 00:43:00,
2013-07-18 19:52:00,69.0,61.0,30.19,East,99,5.0,10.0,77,0.00,,,0.06,,2013-07-19 00:52:00,
2013-07-18 20:01:00,69.0,61.0,30.19,East,99,5.0,10.0,77,0.00,,,0.06,,2013-07-19 01:01:00,
2013-07-18 20:11:00,69.0,61.0,30.19,East,99,5.0,10.0,77,0.00,,,0.06,,2013-07-19 01:11:00,
2013-07-18 20:22:00,68.0,61.0,30.19,ESE,111,5.0,10.0,77,0.00,,,0.06,,2013-07-19 01:22:00,
2013-07-18 20:32:00,68.0,61.0,30.19,ESE,111,5.0,10.0,77,0.00,,,0.06,,2013-07-19 01:32:00,
2013-07-18 20:42:00,68.0,61.0,30.19,ESE,111,5.0,10.0,77,0.00,,,0.06,,2013-07-19 01:42:00,
2013-07-18 20:52:00,68.0,61.0,30.20,East,92,4.0,10.0,78,0.00,,,0.06,,2013-07-19 01:52:00,
2013-07-18 21:01:00,68.0,61.0,30.20,East,92,4.0,10.0,78,0.00,,,0.06,,2013-07-19 02:01:00,
2013-07-18 21:11:00,68.0,61.0,30.20,East,92,4.0,10.0,78,0.00,,,0.06,,2013-07-19 02:11:00,
2013-07-18 21:22:00,68.0,61.0,30.20,ESE,123,4.0,9.0,79,0.00,,,0.06,,2013-07-19 02:22:00,
2013-07-18 21:32:00,68.0,61.0,30.20,ESE,123,4.0,9.0,79,0.00,,,0.06,,2013-07-19 02:32:00,
2013-07-18 21:43:00,68.0,61.0,30.20,ESE,123,4.0,9.0,79,0.00,,,0.06,,2013-07-19 02:43:00,
2013-07-18 21:52:00,67.0,61.0,30.20,ESE,109,2.0,5.0,80,0.00,,,0.06,,2013-07-19 02:52:00,
2013-07-18 22:01:00,67.0,61.0,30.20,ESE,109,2.0,5.0,80,0.00,,,0.06,,2013-07-19 03:01:00,
2013-07-18 22:11:00,67.0,61.0,30.20,ESE,109,2.0,5.0,80,0.00,,,0.06,,2013-07-19 03:11:00,
2013-07-18 22:22:00,66.0,60.0,30.20,East,92,2.0,4.0,82,0.00,,,0.06,,2013-07-19 03:22:00,
2013-07-18 22:32:00,66.0,60.0,30.20,East,92,2.0,4.0,82,0.00,,,0.06,,2013-07-19 03:32:00,
2013-07-18 22:43:00,66.0,60.0,30.20,East,92,2.0,4.0,82,0.00,,,0.06,,2013-07-19 03:43:00,
2013-07-18 22:52:00,65.0,60.0,30.21,East,94,0.0,3.0,84,0.00,,,0.06,,2013-07-19 03:52:00,
2013-07-18 23:02:00,65.0,60.0,30.21,East,94,0.0,3.0,84,0.00,,,0.06,,2013-07-19 04:02:00,
2013-07-18 23:12:00,65.0,60.0,30.21,East,94,0.0,3.0,84,0.00,,,0.06,,2013-07-19 04:12:00,
2013-07-18 23:22:00,65.0,60.0,30.21,East,94,0.0,2.0,85,0.00,,,0.06,,2013-07-19 04:22:00,
2013-07-18 23:33:00,65.0,60.0,30.21,East,94,0.0,2.0,85,0.00,,,0.06,,2013-07-19 04:33:00,
2013-07-18 23:44:00,65.0,60.0,30.21,East,94,0.0,2.0,85,0.00,,,0.06,,2013-07-19 04:44:00,
2013-07-18 23:52:00,65.0,61.0,30.21,East,94,0.0,0.0,86,0.00,,,0.06,,2013-07-19 04:52:00,